South of the Border, South Carolina
Current Conditions -  °F | °C
As of 6:52 AM on Tuesday 27 Jan 2015 (Local Time) from KMEB Reporting Station
Overcast Overcast  
Wind Chill: 30°   Ceiling: 4400
Heat Index: 36°   Visibility: 10mi
Dew Point: 23°   Wind: 8mph
Humidity: 59%   Direction: 330°NNW
Pressure: 29.8"   Gusts: NA
Location:  34.5115°N, 79.4035°W
Report Text: KMEB 271152Z AUTO 33007KT 10SM OVC044 02/M05 A2980 RMK AO2 SLP093 70002 T00221050 10050 20022 53015
Loading
Personal Weather Stations






























Interactive Weather Map New forecast layout! Learn more

10-Day Weather Forecast

Advertisements
Track Severe Weather on mobile